Time;durP1;ratioP1;P1;durP2;ratioP2;P2;SDS_P1;SDS_P2;PMS_P1;PMS_P2;Temp;Humidity;BMP_temperature;BMP_pressure;BME280_temperature;BME280_humidity;BME280_pressure;Samples;Min_cycle;Max_cycle;Signal;HPM_P1;HPM_P2
2021/05/21 00:01:14;;;;;;;3.17;0.98;;;12.50;99.90;;;;;;5055587;28;20037;-69
2021/05/21 00:03:40;;;;;;;2.35;1.20;;;12.50;99.90;;;;;;5055723;28;20025;-69
2021/05/21 00:06:08;;;;;;;1.90;1.05;;;12.40;99.90;;;;;;5055564;28;20029;-69
2021/05/21 00:08:34;;;;;;;2.58;1.00;;;12.40;99.90;;;;;;5054211;28;20037;-69
2021/05/21 00:11:00;;;;;;;1.98;0.98;;;12.40;99.90;;;;;;5054459;28;20040;-69
2021/05/21 00:13:25;;;;;;;4.47;0.95;;;12.40;99.90;;;;;;5055518;28;20037;-69
2021/05/21 00:15:51;;;;;;;2.92;1.00;;;12.30;99.90;;;;;;5055288;28;20032;-69
2021/05/21 00:18:17;;;;;;;1.92;1.20;;;12.40;99.90;;;;;;5055056;28;20083;-69
2021/05/21 00:20:43;;;;;;;4.40;1.38;;;12.30;99.90;;;;;;5055401;28;20029;-69
2021/05/21 00:23:09;;;;;;;2.78;0.98;;;12.40;99.90;;;;;;5054199;28;20091;-69
2021/05/21 00:25:34;;;;;;;3.90;1.17;;;12.30;99.90;;;;;;5055364;28;20111;-69
2021/05/21 00:28:00;;;;;;;2.90;1.20;;;12.30;99.90;;;;;;5055343;28;20116;-69
2021/05/21 00:30:26;;;;;;;4.43;1.45;;;12.30;99.90;;;;;;5055171;28;20120;-69
2021/05/21 00:32:52;;;;;;;1.60;0.80;;;12.40;99.90;;;;;;5054913;28;20377;-69
2021/05/21 00:35:18;;;;;;;2.97;1.10;;;12.40;99.90;;;;;;5055229;28;20037;-69
2021/05/21 00:37:43;;;;;;;3.30;1.15;;;12.50;99.90;;;;;;5054970;28;20082;-69
2021/05/21 00:40:10;;;;;;;1.92;1.10;;;12.60;99.90;;;;;;5054852;28;20378;-69
2021/05/21 00:42:36;;;;;;;3.60;1.10;;;12.70;99.90;;;;;;5053547;28;20067;-69
2021/05/21 00:45:02;;;;;;;3.10;0.90;;;12.80;99.90;;;;;;5054663;28;20024;-69
2021/05/21 00:47:29;;;;;;;2.35;1.10;;;12.80;99.90;;;;;;5053726;28;20024;-69
2021/05/21 00:49:55;;;;;;;3.00;0.93;;;12.90;99.90;;;;;;5054905;28;20033;-69
2021/05/21 00:52:27;;;;;;;3.42;1.02;;;13.00;99.90;;;;;;5054527;28;20036;-69
2021/05/21 00:54:54;;;;;;;5.32;1.10;;;13.10;99.90;;;;;;5052854;28;20420;-69
2021/05/21 00:57:20;;;;;;;1.45;0.80;;;13.10;99.90;;;;;;5054765;28;20021;-69
2021/05/21 00:59:46;;;;;;;3.33;1.00;;;13.10;99.90;;;;;;5054381;28;20504;-69
2021/05/21 01:02:12;;;;;;;2.03;1.17;;;13.10;99.90;;;;;;5054665;28;20033;-69
2021/05/21 01:04:38;;;;;;;1.45;0.90;;;13.10;99.90;;;;;;5054384;28;20037;-69
2021/05/21 01:07:05;;;;;;;2.25;1.00;;;13.00;99.90;;;;;;5053031;28;20098;-69
2021/05/21 01:09:31;;;;;;;2.67;1.02;;;13.10;99.90;;;;;;5054230;28;20036;-69
2021/05/21 01:11:57;;;;;;;2.47;0.80;;;13.10;99.90;;;;;;5053369;28;20393;-69
2021/05/21 01:14:23;;;;;;;1.45;0.80;;;13.20;99.90;;;;;;5054337;28;20066;-69
2021/05/21 01:16:48;;;;;;;2.20;1.00;;;13.10;99.90;;;;;;5054260;28;20065;-67
2021/05/21 01:19:14;;;;;;;1.85;1.02;;;13.10;99.90;;;;;;5054064;28;20044;-69
2021/05/21 01:21:40;;;;;;;2.28;0.90;;;13.10;99.90;;;;;;5054254;28;20036;-69
2021/05/21 01:24:08;;;;;;;3.10;1.30;;;13.00;99.90;;;;;;5054270;28;20110;-69
2021/05/21 01:26:34;;;;;;;3.38;1.20;;;12.90;99.90;;;;;;5054006;28;20032;-69
2021/05/21 01:29:00;;;;;;;2.03;1.05;;;12.90;99.90;;;;;;5054168;28;20060;-69
2021/05/21 01:31:26;;;;;;;1.95;1.10;;;12.80;99.90;;;;;;5054239;28;20445;-69
2021/05/21 01:33:52;;;;;;;1.90;1.20;;;12.80;99.90;;;;;;5054051;28;20458;-69
2021/05/21 01:36:19;;;;;;;2.88;1.00;;;12.70;99.90;;;;;;5054147;28;20033;-70
2021/05/21 01:39:20;;;;;;;2.45;1.23;;;12.70;99.90;;;;;;5052229;28;20446;-69
2021/05/21 01:41:47;;;;;;;3.00;1.08;;;12.70;99.90;;;;;;5011592;28;20692;-68
2021/05/21 01:44:17;;;;;;;2.28;0.90;;;12.60;99.90;;;;;;5045307;28;20098;-68
2021/05/21 01:46:44;;;;;;;3.17;1.30;;;12.60;99.90;;;;;;5053840;28;20029;-69
2021/05/21 01:49:10;;;;;;;1.73;1.00;;;12.60;99.90;;;;;;5053744;28;20033;-68
2021/05/21 01:51:57;;;;;;;2.60;1.10;;;12.50;99.90;;;;;;5053647;28;20033;-68
2021/05/21 01:54:23;;;;;;;3.13;1.98;;;12.60;99.90;;;;;;5053456;28;20412;-69
2021/05/21 01:56:51;;;;;;;3.95;1.13;;;12.60;99.90;;;;;;5053339;28;20124;-69
2021/05/21 01:59:23;;;;;;;2.15;1.20;;;12.60;99.90;;;;;;5053249;28;20056;-69
2021/05/21 02:01:50;;;;;;;3.10;1.20;;;12.60;99.90;;;;;;5053357;28;20029;-69
2021/05/21 02:04:28;;;;;;;2.50;1.08;;;12.70;99.90;;;;;;5053514;28;20079;-69
2021/05/21 02:06:54;;;;;;;2.22;1.10;;;12.60;99.90;;;;;;5052752;28;20029;-69
2021/05/21 02:09:19;;;;;;;2.15;1.10;;;12.70;99.90;;;;;;5053439;28;20025;-69
2021/05/21 02:11:45;;;;;;;4.32;1.33;;;12.70;99.90;;;;;;5053302;28;20119;-69
2021/05/21 02:14:11;;;;;;;3.45;0.77;;;12.70;99.90;;;;;;5053114;28;20033;-69
2021/05/21 02:16:37;;;;;;;2.85;0.90;;;12.70;99.90;;;;;;5053231;28;20061;-69
2021/05/21 02:19:02;;;;;;;2.80;1.15;;;12.70;99.90;;;;;;5052660;28;20091;-69
2021/05/21 02:21:32;;;;;;;3.88;1.20;;;12.70;99.90;;;;;;5053291;28;20071;-69
2021/05/21 02:24:05;;;;;;;3.35;1.00;;;12.70;99.90;;;;;;5052781;28;20032;-69
2021/05/21 02:26:31;;;;;;;2.22;1.10;;;12.70;99.90;;;;;;5053081;28;20057;-69
2021/05/21 02:28:57;;;;;;;1.92;0.95;;;12.70;99.90;;;;;;5051713;28;20033;-68
2021/05/21 02:31:23;;;;;;;1.60;1.00;;;12.60;99.90;;;;;;5053058;28;20110;-69
2021/05/21 02:33:48;;;;;;;3.72;1.00;;;12.60;99.90;;;;;;5052773;28;20040;-68
2021/05/21 02:36:14;;;;;;;1.85;1.05;;;12.60;99.90;;;;;;5052706;28;20032;-68
2021/05/21 02:38:40;;;;;;;2.42;1.17;;;12.70;99.90;;;;;;5052606;28;20044;-68
2021/05/21 02:41:06;;;;;;;1.95;1.08;;;12.70;99.90;;;;;;5052836;28;20048;-68
2021/05/21 02:43:32;;;;;;;2.38;1.13;;;12.70;99.90;;;;;;5052392;28;20032;-68
2021/05/21 02:45:57;;;;;;;2.67;1.20;;;12.80;99.90;;;;;;5052500;28;20082;-69
2021/05/21 02:48:23;;;;;;;4.15;1.40;;;12.80;99.90;;;;;;5052794;28;20040;-69
2021/05/21 02:50:49;;;;;;;2.10;1.00;;;12.80;99.90;;;;;;5052610;28;20063;-69
2021/05/21 02:53:15;;;;;;;3.40;1.00;;;12.80;99.90;;;;;;5052380;28;20474;-69
2021/05/21 02:55:40;;;;;;;2.88;1.42;;;12.80;99.90;;;;;;5052632;28;20561;-70
2021/05/21 02:58:06;;;;;;;3.70;0.93;;;12.80;99.90;;;;;;5052683;28;20048;-69
2021/05/21 03:00:32;;;;;;;2.42;1.10;;;12.80;99.90;;;;;;5052485;28;20158;-69
2021/05/21 03:02:57;;;;;;;3.40;0.88;;;12.80;99.90;;;;;;5052596;28;20033;-69
2021/05/21 03:05:23;;;;;;;1.27;0.85;;;12.90;99.90;;;;;;5052424;28;20040;-68
2021/05/21 03:07:57;;;;;;;2.83;1.00;;;13.00;99.90;;;;;;5052430;28;20090;-68
2021/05/21 03:10:27;;;;;;;1.92;0.90;;;13.10;99.90;;;;;;5052197;28;20033;-69
2021/05/21 03:12:54;;;;;;;2.08;1.00;;;13.10;99.90;;;;;;5052276;28;20032;-69
2021/05/21 03:15:21;;;;;;;3.38;1.02;;;13.10;99.90;;;;;;5052376;28;20168;-69
2021/05/21 03:17:47;;;;;;;1.40;0.90;;;13.10;99.90;;;;;;5033983;28;20036;-69
2021/05/21 03:20:14;;;;;;;4.10;1.08;;;13.10;99.90;;;;;;5051805;28;20406;-69
2021/05/21 03:22:41;;;;;;;1.95;0.90;;;13.10;99.90;;;;;;5052141;28;20029;-69
2021/05/21 03:25:08;;;;;;;6.35;1.13;;;13.10;99.90;;;;;;5052017;28;20086;-69
2021/05/21 03:27:34;;;;;;;3.10;0.90;;;13.20;99.90;;;;;;5052241;28;20033;-69
2021/05/21 03:30:01;;;;;;;1.92;1.00;;;13.10;99.90;;;;;;5051058;28;20120;-69
2021/05/21 03:32:27;;;;;;;3.80;1.80;;;13.10;99.90;;;;;;5052277;28;20048;-69
2021/05/21 03:34:53;;;;;;;2.05;0.90;;;13.00;99.90;;;;;;5051978;28;20040;-69
2021/05/21 03:37:19;;;;;;;3.40;0.90;;;13.10;99.90;;;;;;5051926;28;20068;-69
2021/05/21 03:39:46;;;;;;;3.38;1.00;;;13.00;99.90;;;;;;5050746;28;20171;-68
2021/05/21 03:42:13;;;;;;;3.83;1.10;;;13.00;99.90;;;;;;5052095;28;20025;-69
2021/05/21 03:44:39;;;;;;;1.50;0.93;;;12.90;99.90;;;;;;5052040;28;20584;-69
2021/05/21 03:47:05;;;;;;;2.13;0.93;;;12.90;99.90;;;;;;5051803;28;20032;-69
2021/05/21 03:49:32;;;;;;;1.85;0.93;;;13.00;99.90;;;;;;5050621;28;20112;-69
2021/05/21 03:52:01;;;;;;;2.28;1.10;;;13.00;99.90;;;;;;5051880;28;20454;-69
2021/05/21 03:54:27;;;;;;;1.67;0.90;;;12.90;99.90;;;;;;5051923;28;20037;-69
2021/05/21 03:56:52;;;;;;;4.40;1.55;;;12.80;99.90;;;;;;5051942;28;20059;-69
2021/05/21 03:59:19;;;;;;;3.20;1.02;;;12.80;99.90;;;;;;5051916;28;20025;-69
2021/05/21 04:01:51;;;;;;;2.05;1.10;;;12.70;99.90;;;;;;5050351;28;20025;-69
2021/05/21 04:04:17;;;;;;;4.22;1.40;;;12.80;99.90;;;;;;5051775;28;20025;-69
2021/05/21 04:06:43;;;;;;;2.08;0.90;;;12.80;99.90;;;;;;5051521;28;20470;-69
2021/05/21 04:09:09;;;;;;;2.58;1.30;;;12.80;99.90;;;;;;5051917;28;20032;-69
2021/05/21 04:11:37;;;;;;;1.27;0.85;;;12.80;99.90;;;;;;5051545;28;20098;-69
2021/05/21 04:14:07;;;;;;;1.75;1.10;;;12.80;99.90;;;;;;5050557;28;20041;-69
2021/05/21 04:16:33;;;;;;;2.22;1.27;;;12.80;99.90;;;;;;5051790;28;20086;-69
2021/05/21 04:19:00;;;;;;;1.60;0.90;;;12.80;99.90;;;;;;5051180;28;20119;-69
2021/05/21 04:21:26;;;;;;;1.83;1.00;;;12.90;99.90;;;;;;5050545;28;20040;-69
2021/05/21 04:23:54;;;;;;;2.38;1.15;;;12.80;99.90;;;;;;5051422;28;20044;-68
2021/05/21 04:26:20;;;;;;;4.53;1.48;;;12.90;99.90;;;;;;5051536;28;20036;-70
2021/05/21 04:28:49;;;;;;;3.40;1.23;;;12.90;99.90;;;;;;5050831;28;20040;-70
2021/05/21 04:31:18;;;;;;;2.00;1.20;;;12.90;99.90;;;;;;5055329;28;20024;-70
2021/05/21 04:33:44;;;;;;;2.28;1.25;;;13.00;99.90;;;;;;5054796;28;20040;-69
2021/05/21 04:36:10;;;;;;;2.75;1.30;;;13.00;99.90;;;;;;5055189;28;20082;-69
2021/05/21 04:38:36;;;;;;;2.60;1.40;;;13.00;99.90;;;;;;5055103;28;20041;-69
2021/05/21 04:41:03;;;;;;;2.03;1.30;;;13.10;99.90;;;;;;5054921;28;20040;-69
2021/05/21 04:43:29;;;;;;;3.83;1.70;;;13.20;99.90;;;;;;5055006;28;20029;-69
2021/05/21 04:45:56;;;;;;;2.38;1.20;;;13.30;99.90;;;;;;5054677;28;20036;-69
2021/05/21 04:48:23;;;;;;;3.30;1.23;;;13.20;99.90;;;;;;5055063;28;20032;-69
2021/05/21 04:50:50;;;;;;;4.35;1.27;;;13.30;99.90;;;;;;5054563;28;20086;-69
2021/05/21 04:53:16;;;;;;;4.30;1.50;;;13.40;99.90;;;;;;5054623;28;20041;-69
2021/05/21 04:55:42;;;;;;;3.50;1.30;;;13.40;99.90;;;;;;5054711;28;20029;-69
2021/05/21 04:58:09;;;;;;;1.88;1.05;;;13.40;99.90;;;;;;5054822;28;20035;-69
2021/05/21 05:00:36;;;;;;;3.70;0.93;;;13.40;99.90;;;;;;5054726;28;20040;-69
2021/05/21 05:03:07;;;;;;;1.50;0.90;;;13.50;99.90;;;;;;5053056;28;20474;-69
2021/05/21 05:05:33;;;;;;;3.92;1.50;;;13.60;99.90;;;;;;5054360;28;20059;-69
2021/05/21 05:07:59;;;;;;;2.65;1.17;;;13.60;99.90;;;;;;5054601;28;20554;-69
2021/05/21 05:10:25;;;;;;;5.43;1.10;;;13.60;99.90;;;;;;5054313;28;20041;-69
2021/05/21 05:12:53;;;;;;;3.20;1.30;;;13.60;99.90;;;;;;5054400;28;20025;-69
2021/05/21 05:15:20;;;;;;;3.67;0.90;;;13.70;99.90;;;;;;5054460;28;20037;-69
2021/05/21 05:17:50;;;;;;;1.48;1.00;;;13.60;99.90;;;;;;5054318;28;20033;-69
2021/05/21 05:20:20;;;;;;;3.80;1.23;;;13.70;99.90;;;;;;5053957;28;20114;-69
2021/05/21 05:22:47;;;;;;;1.73;0.80;;;13.70;99.90;;;;;;5054273;28;20140;-69
2021/05/21 05:25:13;;;;;;;2.25;1.00;;;13.70;99.90;;;;;;5054244;28;20474;-69
2021/05/21 05:27:39;;;;;;;1.55;0.80;;;13.80;99.90;;;;;;5053974;28;20032;-69
2021/05/21 05:30:06;;;;;;;1.90;0.85;;;13.70;99.90;;;;;;5052921;28;20444;-69
2021/05/21 05:32:32;;;;;;;1.67;0.90;;;13.80;99.90;;;;;;5054086;28;20033;-70
2021/05/21 05:34:58;;;;;;;2.78;1.25;;;13.80;99.90;;;;;;5053555;28;20029;-69
2021/05/21 05:37:24;;;;;;;3.33;0.95;;;13.80;99.90;;;;;;5053931;28;20158;-69
2021/05/21 05:39:50;;;;;;;1.88;0.80;;;13.80;99.90;;;;;;5053638;28;20101;-69
2021/05/21 05:42:16;;;;;;;3.45;1.00;;;13.80;99.90;;;;;;5052690;28;20520;-69
2021/05/21 05:44:41;;;;;;;5.22;1.15;;;13.80;99.90;;;;;;5053971;28;20025;-69
2021/05/21 05:47:07;;;;;;;2.17;0.93;;;13.90;99.90;;;;;;5053485;28;20029;-69
2021/05/21 05:49:33;;;;;;;2.70;1.25;;;13.80;99.90;;;;;;5053836;28;20082;-69
2021/05/21 05:51:59;;;;;;;2.17;1.10;;;13.80;99.90;;;;;;5053548;28;20450;-69
2021/05/21 05:54:26;;;;;;;2.97;1.08;;;13.80;99.90;;;;;;5053781;28;20037;-69
2021/05/21 05:56:55;;;;;;;2.00;1.00;;;13.90;99.90;;;;;;5053500;28;20087;-69
2021/05/21 05:59:23;;;;;;;4.88;1.20;;;13.80;99.90;;;;;;5053235;28;20047;-69
2021/05/21 06:01:49;;;;;;;2.78;1.25;;;13.80;99.90;;;;;;5053396;28;20035;-69
2021/05/21 06:04:14;;;;;;;12.32;1.33;;;13.80;99.90;;;;;;5053535;28;20040;-68
2021/05/21 06:06:40;;;;;;;2.15;1.20;;;13.80;99.90;;;;;;5053114;28;20045;-68
2021/05/21 06:09:09;;;;;;;5.00;2.15;;;13.80;99.90;;;;;;5053346;28;20033;-69
2021/05/21 06:11:38;;;;;;;1.42;0.80;;;13.80;99.90;;;;;;5052960;28;20476;-69
2021/05/21 06:14:04;;;;;;;2.13;1.10;;;13.80;99.90;;;;;;5053288;28;20029;-69
2021/05/21 06:16:31;;;;;;;3.90;1.20;;;13.80;99.90;;;;;;5052941;28;20017;-69
2021/05/21 06:18:57;;;;;;;2.78;0.77;;;13.80;99.90;;;;;;5052726;28;20044;-69
2021/05/21 06:21:23;;;;;;;1.60;1.02;;;13.90;99.90;;;;;;5051707;28;20496;-69
2021/05/21 06:23:49;;;;;;;4.53;1.02;;;13.90;99.90;;;;;;5053013;28;20123;-69
2021/05/21 06:28:45;;;;;;;1.92;0.90;;;13.90;99.90;;;;;;5053031;28;20025;-69
2021/05/21 06:31:12;;;;;;;7.43;1.67;;;13.90;99.90;;;;;;5052824;28;20032;-69
2021/05/21 06:33:39;;;;;;;13.93;1.15;;;13.90;99.90;;;;;;5052768;28;20029;-69
2021/05/21 06:36:05;;;;;;;2.88;1.42;;;14.00;99.90;;;;;;5052875;28;20033;-69
2021/05/21 06:38:31;;;;;;;1.75;0.95;;;14.00;99.90;;;;;;5052821;28;20048;-69
2021/05/21 06:40:57;;;;;;;3.47;1.25;;;14.00;99.90;;;;;;5052356;28;20052;-69
2021/05/21 06:43:23;;;;;;;4.13;1.10;;;14.00;99.90;;;;;;5052711;28;20458;-69
2021/05/21 06:45:49;;;;;;;4.03;1.50;;;14.00;99.90;;;;;;5052220;28;20473;-69
2021/05/21 06:48:15;;;;;;;3.90;1.55;;;14.00;99.90;;;;;;5052559;28;20032;-68
2021/05/21 06:50:44;;;;;;;5.30;0.98;;;14.00;99.90;;;;;;5052634;28;20021;-70
2021/05/21 06:53:10;;;;;;;2.35;1.20;;;14.00;99.90;;;;;;5051988;28;20029;-70
2021/05/21 06:55:38;;;;;;;1.98;0.98;;;13.90;99.90;;;;;;5052663;28;20065;-70
2021/05/21 06:58:04;;;;;;;2.78;1.63;;;13.90;99.90;;;;;;5052251;28;20467;-68
2021/05/21 07:00:30;;;;;;;3.40;1.17;;;14.00;99.90;;;;;;5052501;28;20098;-69
2021/05/21 07:02:56;;;;;;;4.15;1.35;;;14.10;99.90;;;;;;5050863;28;20033;-69
2021/05/21 07:05:22;;;;;;;3.03;1.10;;;14.00;99.90;;;;;;5052378;28;20033;-68
2021/05/21 07:07:48;;;;;;;7.13;1.00;;;14.00;99.90;;;;;;5052442;28;20079;-69
2021/05/21 07:10:14;;;;;;;2.60;1.30;;;14.10;99.90;;;;;;5052437;28;20419;-69
2021/05/21 07:12:40;;;;;;;5.55;1.00;;;14.10;99.90;;;;;;5052381;28;20033;-69
2021/05/21 07:15:07;;;;;;;2.70;1.17;;;14.10;99.90;;;;;;5052266;28;20041;-69
2021/05/21 07:17:33;;;;;;;1.98;0.90;;;14.20;99.90;;;;;;5051924;28;20437;-69
2021/05/21 07:19:59;;;;;;;3.55;1.02;;;14.20;99.90;;;;;;5050451;28;20049;-69
2021/05/21 07:22:25;;;;;;;4.45;0.90;;;14.30;99.90;;;;;;5052196;28;20033;-68
2021/05/21 07:24:51;;;;;;;1.80;0.93;;;14.20;99.90;;;;;;5051986;28;20108;-68
2021/05/21 07:27:17;;;;;;;3.78;1.20;;;14.20;99.90;;;;;;5052195;28;20170;-68
2021/05/21 07:29:42;;;;;;;3.80;1.48;;;14.30;99.90;;;;;;5050916;28;20036;-68
2021/05/21 07:32:09;;;;;;;3.50;1.08;;;14.30;99.90;;;;;;5052035;28;20052;-68
2021/05/21 07:34:36;;;;;;;3.03;1.17;;;14.30;99.90;;;;;;5050787;28;20025;-69
2021/05/21 07:37:03;;;;;;;6.40;1.52;;;14.30;99.90;;;;;;5051675;28;20041;-69
2021/05/21 07:39:29;;;;;;;1.98;1.10;;;14.40;99.90;;;;;;5051861;28;20029;-69
2021/05/21 07:41:56;;;;;;;3.63;0.93;;;14.40;99.90;;;;;;5051646;28;20027;-69
2021/05/21 07:44:22;;;;;;;2.67;1.05;;;14.50;99.90;;;;;;5051936;28;20473;-69
2021/05/21 07:46:50;;;;;;;3.85;1.25;;;14.60;99.90;;;;;;5050894;28;20162;-69
2021/05/21 07:49:22;;;;;;;5.90;0.98;;;14.60;99.90;;;;;;5051806;28;20378;-69
2021/05/21 07:51:49;;;;;;;6.18;1.60;;;14.70;99.90;;;;;;5051865;28;20032;-68
2021/05/21 07:54:16;;;;;;;2.20;1.05;;;14.70;99.90;;;;;;5050325;28;20029;-68
2021/05/21 07:56:43;;;;;;;7.25;1.23;;;14.80;99.90;;;;;;5050829;28;20031;-68
2021/05/21 07:59:11;;;;;;;3.47;1.30;;;14.90;99.90;;;;;;5050467;28;20108;-69
2021/05/21 08:01:38;;;;;;;2.33;0.90;;;14.90;99.90;;;;;;5051991;28;20032;-69
2021/05/21 08:04:04;;;;;;;5.95;1.00;;;14.90;99.90;;;;;;5052757;28;20442;-68
2021/05/21 08:06:30;;;;;;;2.45;1.05;;;15.00;99.90;;;;;;5055583;28;20040;-69
2021/05/21 08:08:56;;;;;;;3.78;0.95;;;15.10;99.90;;;;;;5055628;28;20414;-69
2021/05/21 08:11:22;;;;;;;2.35;0.80;;;15.20;99.90;;;;;;5055682;28;20033;-68
2021/05/21 08:13:47;;;;;;;4.10;1.50;;;15.30;99.90;;;;;;5055720;28;20033;-69
2021/05/21 08:16:14;;;;;;;2.88;1.10;;;15.30;99.90;;;;;;5055534;28;20033;-69
2021/05/21 08:18:40;;;;;;;2.70;0.80;;;15.40;99.90;;;;;;5055014;28;20135;-68
2021/05/21 08:21:09;;;;;;;8.88;1.55;;;15.40;99.90;;;;;;5055416;28;20033;-68
2021/05/21 08:23:37;;;;;;;3.83;0.90;;;15.40;99.90;;;;;;5055354;28;20115;-69
2021/05/21 08:26:06;;;;;;;2.58;0.80;;;15.50;99.90;;;;;;5055413;28;20059;-69
2021/05/21 08:28:33;;;;;;;2.38;0.45;;;15.60;99.90;;;;;;5055634;28;20115;-69
2021/05/21 08:30:58;;;;;;;3.30;0.60;;;15.60;99.90;;;;;;5054937;28;20033;-69
2021/05/21 08:33:24;;;;;;;7.22;2.15;;;15.70;99.90;;;;;;5054909;28;20033;-69
2021/05/21 08:35:50;;;;;;;3.92;1.27;;;15.70;99.90;;;;;;5054936;28;20106;-69
2021/05/21 08:38:17;;;;;;;5.30;0.65;;;15.80;98.90;;;;;;5054709;28;20474;-69
2021/05/21 08:40:43;;;;;;;2.42;0.70;;;15.80;99.30;;;;;;5054902;28;20029;-69
2021/05/21 08:43:11;;;;;;;3.95;0.57;;;15.90;99.90;;;;;;5054819;28;20358;-69
2021/05/21 08:45:38;;;;;;;2.05;0.60;;;16.00;98.40;;;;;;5053869;28;20029;-70
2021/05/21 08:48:05;;;;;;;3.03;0.75;;;16.00;99.50;;;;;;5054829;28;20036;-69
2021/05/21 08:50:32;;;;;;;4.20;0.57;;;15.90;98.90;;;;;;5053523;28;20025;-69
2021/05/21 08:52:58;;;;;;;4.00;0.60;;;15.90;99.20;;;;;;5054660;28;20040;-70
2021/05/21 08:55:24;;;;;;;3.17;0.60;;;15.90;99.50;;;;;;5054955;28;20040;-69
2021/05/21 08:57:50;;;;;;;0.63;0.40;;;15.90;99.50;;;;;;5054839;28;20546;-69
2021/05/21 09:00:17;;;;;;;3.25;0.75;;;16.00;99.80;;;;;;5054548;28;20056;-69
2021/05/21 09:02:43;;;;;;;1.52;0.50;;;16.10;99.90;;;;;;5054546;28;20025;-69
2021/05/21 09:05:12;;;;;;;1.15;0.88;;;16.20;99.40;;;;;;5054234;28;20485;-69
2021/05/21 09:07:42;;;;;;;2.30;0.80;;;16.10;99.30;;;;;;5053307;28;20511;-69
2021/05/21 09:10:17;;;;;;;1.63;0.63;;;16.10;98.90;;;;;;5054538;28;20033;-69
2021/05/21 09:12:49;;;;;;;3.20;0.70;;;16.00;99.90;;;;;;5054524;28;20290;-69
2021/05/21 09:15:18;;;;;;;2.15;0.50;;;16.00;99.90;;;;;;5052657;28;20041;-69
2021/05/21 09:18:04;;;;;;;1.48;0.55;;;16.00;99.90;;;;;;5054394;28;20179;-69
2021/05/21 09:20:40;;;;;;;3.13;1.05;;;15.90;99.90;;;;;;5054210;28;20087;-69
2021/05/21 09:23:16;;;;;;;1.45;0.60;;;15.90;99.90;;;;;;5054201;28;20524;-69
2021/05/21 09:25:51;;;;;;;7.63;1.00;;;15.90;99.90;;;;;;5054168;28;20064;-70
2021/05/21 09:28:36;;;;;;;3.83;1.17;;;15.90;99.60;;;;;;5053941;28;20090;-69
2021/05/21 09:31:21;;;;;;;4.82;0.50;;;15.80;99.90;;;;;;5054122;28;20107;-69
2021/05/21 09:33:51;;;;;;;1.48;0.68;;;15.80;99.90;;;;;;5054153;28;20040;-70
2021/05/21 09:36:32;;;;;;;2.47;0.57;;;15.80;99.90;;;;;;5054118;28;20115;-69
2021/05/21 09:38:59;;;;;;;1.30;0.57;;;15.90;99.90;;;;;;5053898;28;20279;-69
2021/05/21 09:41:26;;;;;;;1.65;0.50;;;16.00;99.90;;;;;;5053971;28;20283;-69
2021/05/21 09:43:56;;;;;;;4.05;0.82;;;15.90;99.80;;;;;;5052431;28;20480;-69
2021/05/21 09:46:23;;;;;;;2.38;0.82;;;16.00;99.90;;;;;;5053811;28;20477;-69
2021/05/21 09:48:50;;;;;;;11.73;0.93;;;16.00;99.90;;;;;;5053792;28;20032;-69
2021/05/21 09:51:16;;;;;;;5.40;1.10;;;16.00;99.90;;;;;;5053739;28;20029;-69
2021/05/21 09:53:46;;;;;;;3.00;0.45;;;16.10;99.80;;;;;;5053564;28;20362;-69
2021/05/21 09:56:20;;;;;;;2.67;0.80;;;16.10;99.70;;;;;;5053445;28;20032;-68
2021/05/21 09:58:47;;;;;;;4.13;0.57;;;16.10;99.90;;;;;;5053528;28;20029;-68
2021/05/21 10:01:16;;;;;;;5.82;0.80;;;16.20;99.90;;;;;;5053186;28;20033;-70
2021/05/21 10:03:48;;;;;;;2.72;0.73;;;16.30;99.90;;;;;;5052461;28;20571;-70
2021/05/21 10:06:16;;;;;;;5.72;0.80;;;16.30;99.90;;;;;;5053480;28;20033;-70
2021/05/21 10:08:44;;;;;;;1.55;0.57;;;16.30;99.60;;;;;;5052487;28;20078;-69
2021/05/21 10:11:10;;;;;;;2.50;0.73;;;16.50;99.80;;;;;;5052028;28;20116;-69
2021/05/21 10:13:42;;;;;;;2.13;0.70;;;16.70;99.60;;;;;;5051786;28;20527;-69
2021/05/21 10:16:10;;;;;;;1.65;0.60;;;16.70;99.20;;;;;;5053063;28;20489;-69
2021/05/21 10:18:36;;;;;;;2.47;0.65;;;16.70;99.80;;;;;;5053080;28;20049;-69
2021/05/21 10:21:04;;;;;;;5.00;0.90;;;16.70;98.90;;;;;;5051847;28;20029;-70
2021/05/21 10:23:44;;;;;;;2.40;0.60;;;16.60;99.50;;;;;;5053164;28;20082;-69
2021/05/21 10:26:16;;;;;;;3.05;0.60;;;16.60;98.60;;;;;;5051270;28;20489;-69
2021/05/21 10:28:46;;;;;;;1.25;0.65;;;16.60;99.60;;;;;;5051530;28;20473;-68
2021/05/21 10:31:14;;;;;;;3.95;0.77;;;16.80;97.60;;;;;;5051879;28;20039;-69
2021/05/21 10:33:43;;;;;;;1.00;0.50;;;16.90;98.50;;;;;;5052811;28;20028;-69
2021/05/21 10:36:23;;;;;;;2.33;0.35;;;17.00;98.10;;;;;;5052883;28;20059;-69
2021/05/21 10:39:07;;;;;;;2.42;0.80;;;17.10;97.30;;;;;;5052718;28;20033;-69
2021/05/21 10:41:36;;;;;;;4.75;1.00;;;17.30;97.30;;;;;;5052519;28;20032;-69
2021/05/21 10:44:19;;;;;;;4.20;0.73;;;17.30;97.70;;;;;;5052708;28;20040;-70
2021/05/21 10:46:46;;;;;;;11.18;1.00;;;17.40;97.70;;;;;;5052583;28;20037;-69
2021/05/21 10:49:25;;;;;;;3.97;0.80;;;17.50;96.10;;;;;;5051243;28;20040;-69
2021/05/21 10:51:55;;;;;;;0.85;0.40;;;17.50;96.60;;;;;;5052477;28;20398;-68
2021/05/21 10:54:34;;;;;;;16.23;1.08;;;17.30;96.00;;;;;;5052300;28;20037;-69
2021/05/21 10:57:13;;;;;;;9.18;1.23;;;17.20;96.40;;;;;;5052682;28;20037;-68
2021/05/21 10:59:51;;;;;;;5.35;0.52;;;17.20;96.60;;;;;;5052702;28;20080;-68
2021/05/21 11:02:22;;;;;;;11.20;1.48;;;17.30;96.00;;;;;;5052591;28;20036;-69
2021/05/21 11:04:55;;;;;;;10.23;0.95;;;17.40;95.50;;;;;;5051162;28;20041;-69
2021/05/21 11:07:43;;;;;;;2.20;0.80;;;17.40;95.40;;;;;;5052425;28;20029;-69
2021/05/21 11:10:31;;;;;;;32.45;2.67;;;17.50;96.60;;;;;;5052187;28;20094;-69
2021/05/21 11:13:19;;;;;;;4.50;0.95;;;17.60;94.90;;;;;;5051390;28;20021;-69
2021/05/21 11:15:47;;;;;;;2.80;0.60;;;17.50;94.90;;;;;;5052042;28;20094;-69
2021/05/21 11:18:16;;;;;;;3.33;0.70;;;17.60;95.10;;;;;;5051949;28;20077;-69
2021/05/21 11:21:05;;;;;;;3.22;0.50;;;17.70;93.90;;;;;;5051993;28;20374;-69
2021/05/21 11:24:01;;;;;;;2.05;0.73;;;17.80;93.90;;;;;;5052294;28;20040;-69
2021/05/21 11:26:27;;;;;;;3.97;0.80;;;17.60;94.50;;;;;;5051700;28;20049;-69
2021/05/21 11:28:58;;;;;;;4.50;0.70;;;17.60;94.00;;;;;;5052341;28;20108;-69
2021/05/21 11:31:33;;;;;;;6.53;0.75;;;17.70;93.70;;;;;;5052286;28;20032;-70
2021/05/21 11:34:02;;;;;;;1.23;0.50;;;17.60;93.70;;;;;;5052351;28;20087;-68
2021/05/21 11:36:34;;;;;;;2.35;0.60;;;17.70;94.10;;;;;;5051758;28;20040;-68
2021/05/21 11:39:04;;;;;;;1.85;0.65;;;17.80;93.40;;;;;;5054774;28;20029;-68
2021/05/21 11:41:32;;;;;;;1.63;0.80;;;17.90;92.20;;;;;;5056179;28;20036;-69
2021/05/21 11:44:04;;;;;;;3.33;0.50;;;18.00;92.20;;;;;;5056176;28;20033;-67
2021/05/21 11:46:40;;;;;;;2.97;0.60;;;18.20;90.90;;;;;;5056144;28;20461;-68
2021/05/21 11:49:08;;;;;;;1.60;0.80;;;18.50;90.80;;;;;;5054673;28;20385;-69
2021/05/21 11:51:34;;;;;;;2.53;0.52;;;18.50;91.00;;;;;;5056149;28;20415;-69
2021/05/21 11:54:04;;;;;;;3.22;0.70;;;18.50;90.60;;;;;;5055758;28;20163;-68
2021/05/21 11:56:34;;;;;;;5.00;1.02;;;18.50;88.80;;;;;;5054438;28;20141;-69
2021/05/21 11:59:10;;;;;;;2.65;0.50;;;18.30;89.40;;;;;;5055651;28;20037;-69
2021/05/21 12:01:43;;;;;;;2.17;0.43;;;18.40;90.70;;;;;;5054867;28;20044;-68
2021/05/21 12:04:09;;;;;;;1.45;0.40;;;18.40;88.10;;;;;;5055501;28;20040;-68
2021/05/21 12:06:37;;;;;;;4.07;0.70;;;18.30;88.50;;;;;;5055857;28;20037;-69
2021/05/21 12:09:05;;;;;;;2.60;0.60;;;18.20;90.60;;;;;;5055496;28;20499;-69
2021/05/21 12:11:31;;;;;;;5.57;0.68;;;18.10;90.30;;;;;;5055587;28;20048;-68
2021/05/21 12:14:10;;;;;;;1.88;0.80;;;18.10;90.30;;;;;;5055718;28;20037;-69
2021/05/21 12:16:37;;;;;;;1.70;0.50;;;18.20;89.90;;;;;;5055706;28;20036;-69
2021/05/21 12:19:05;;;;;;;4.43;0.75;;;18.10;89.30;;;;;;5055302;28;20071;-69
2021/05/21 12:21:35;;;;;;;0.93;0.32;;;18.20;90.70;;;;;;5055136;28;20585;-70
2021/05/21 12:24:02;;;;;;;3.75;0.77;;;18.20;91.60;;;;;;5055626;28;20032;-69
2021/05/21 12:26:34;;;;;;;3.78;0.63;;;18.20;91.30;;;;;;5055344;28;20044;-69
2021/05/21 12:29:02;;;;;;;5.90;0.70;;;18.20;91.70;;;;;;5055102;28;20503;-69
2021/05/21 12:31:32;;;;;;;3.22;0.80;;;18.00;91.40;;;;;;5055131;28;20037;-69
2021/05/21 12:34:00;;;;;;;2.20;0.60;;;17.90;91.70;;;;;;5053905;28;20032;-68
2021/05/21 12:36:30;;;;;;;2.13;0.70;;;18.00;91.90;;;;;;5055170;28;20044;-69
2021/05/21 12:39:06;;;;;;;3.58;0.70;;;17.90;92.20;;;;;;5055138;28;20025;-69
2021/05/21 12:41:35;;;;;;;1.75;0.73;;;17.80;91.70;;;;;;5053941;28;20500;-69
2021/05/21 12:44:10;;;;;;;3.40;0.80;;;17.80;93.30;;;;;;5055038;28;20067;-69
2021/05/21 12:46:59;;;;;;;4.88;0.80;;;17.90;92.60;;;;;;5054669;28;20036;-69
2021/05/21 12:49:36;;;;;;;3.75;0.60;;;18.00;93.60;;;;;;5053970;28;20474;-69
2021/05/21 12:52:07;;;;;;;4.47;1.20;;;17.90;92.20;;;;;;5037534;28;20071;-68
2021/05/21 12:54:42;;;;;;;2.87;0.63;;;17.90;92.50;;;;;;5053648;28;20037;-69